COOK1: Arkansas River Nr Coolidge, KS

                                SHEF ID:       COOK1     ARKANSAS R NR COOLIDGE, KS
STATION TYPE:
Regulating: Stage = 8.00, Flow = 2050

PRECIP STAGE STAGE(2) RIV-FLOW WTR-TEMP CONDUCT BAT-LOAD
in ft ft cfs F umho/cm volt
Ccp-Rev Ccp-Rev Ccp-Rev Ccp-Rev Ccp-Rev Ccp-Rev Ccp-Rev
(America/Chicago)
06/27 00:00 0.00 2.82 2.94 85 76.75 5661 12.95
06/27 01:00 0.00 2.82 2.92 85 75.90 5632 12.95
06/27 02:00 0.00 2.81 2.93 84 75.13 5630 12.89
06/27 03:00 0.00 2.81 2.92 84 74.25 5636 12.89
06/27 04:00 0.00 2.82 2.92 85 73.36 5639 12.89
06/27 05:00 0.00 2.80 2.92 82 72.61 5650 12.89
06/27 06:00 0.00 2.81 2.93 84 71.89 5719 12.89
06/27 07:00 0.00 2.82 2.94 85 71.26 5776 12.83
06/27 08:00 0.00 2.80 2.92 82 70.88 5765 12.83
06/27 09:00 0.00 2.82 2.94 85 70.81 5767 13.00
06/27 10:00 0.00 2.82 2.95 85 71.80 5773 13.18
06/27 11:00 0.00 2.83 2.96 86 72.28 5767 13.48
06/27 12:00 0.00 2.82 2.95 85 74.48 5776 13.71
06/27 13:00 0.00 2.82 2.97 85 76.06 5756 13.65
06/27 14:00 0.00 2.84 2.97 87 77.47 5753 13.42
06/27 15:00 0.00 2.83 2.97 86 79.27 5744 13.83
06/27 16:00 0.00 2.83 2.96 86 80.94 5733 13.24
06/27 17:00 0.00 2.71 2.85 73 80.53 5731 13.18
06/27 18:00 0.00 2.57 2.68 60 80.06 5902 13.18
06/27 19:00 0.00 2.52 2.66 55 78.85 5938 13.18
06/27 20:00 0.00 2.51 2.63 55 77.92 5976 13.12
06/27 21:00 0.00 2.49 2.60 53 76.57 6001 13.00
06/27 22:00 0.00 2.47 2.59 51 75.47 6021 13.00
06/27 23:00 ---- ---- ---- ---- ---- ---- ----
Data processed at Fri 28Jun2024 04:30 GMT

Parsing this webpage?

Checkout our new Data API! CWMSDataAPI (CDA)

Timeseries IDs (TSIDs)

TSIDs used from left to right in the data table
COOL.Precip-Inc.Total.1Hour.1Hour.Ccp-Rev
COOL.Stage.Inst.1Hour.0.Ccp-Rev
COOL.Stage-Alt.Inst.1Hour.0.Ccp-Rev
COOL.Flow.Inst.1Hour.0.Ccp-Rev
COOL.Temp-Water.Inst.1Hour.0.Ccp-Rev
COOL.Cond.Inst.1Hour.0.Ccp-Rev
COOL.Volt-Battery Load.Inst.1Hour.0.Ccp-Rev

                            

All information presented herein is the property of the government of the United States of America and may be revised or deleted at any time without prior notice. Dissemination of this information without the expressed written consent of the Public Affairs Office, Tulsa District U.S. Army Corps of Engineers is strictly prohibited. These data are gathered electronically and, as presented, have NOT undergone any form of quality control. These data are NOT guaranteed to be valid or correct.